createdAt,value
2022-08-18T00:01:06.611Z,99053.41
2022-08-18T00:03:56.673Z,99047.31
2022-08-18T00:06:21.155Z,99044.94
2022-08-18T00:08:47.960Z,99048.59
2022-08-18T00:11:16.157Z,99051.28
2022-08-18T00:13:42.999Z,99045.34
2022-08-18T00:16:09.918Z,99054.66
2022-08-18T00:18:36.734Z,99048.75
2022-08-18T00:21:03.550Z,99051.72
2022-08-18T00:23:32.689Z,99062.72
2022-08-18T00:25:59.555Z,99060.31
2022-08-18T00:28:26.614Z,99069.38
2022-08-18T00:30:54.063Z,99065.00
2022-08-18T00:33:21.797Z,99062.31
2022-08-18T00:35:49.383Z,99063.31
2022-08-18T00:38:24.577Z,99061.75
2022-08-18T00:40:55.630Z,99061.19
2022-08-18T00:43:32.134Z,99058.06
2022-08-18T00:45:59.400Z,99063.72
2022-08-18T00:48:26.568Z,99062.03
2022-08-18T00:51:00.269Z,99052.41
2022-08-18T00:53:29.538Z,99058.91
2022-08-18T00:56:00.583Z,99059.34
2022-08-18T00:58:40.001Z,99068.50
2022-08-18T01:01:09.605Z,99054.66
2022-08-18T01:03:40.133Z,99051.41
2022-08-18T01:06:09.899Z,99052.53
2022-08-18T01:08:38.826Z,99052.94
2022-08-18T01:11:07.875Z,99057.59
2022-08-18T01:13:38.317Z,99057.13
2022-08-18T01:16:25.595Z,99055.69
2022-08-18T01:19:11.753Z,99055.13
2022-08-18T01:21:52.348Z,99049.22
2022-08-18T01:24:52.485Z,99058.50
2022-08-18T01:27:19.416Z,99058.91
2022-08-18T01:29:48.528Z,99058.06
2022-08-18T01:32:22.512Z,99052.00
2022-08-18T01:34:51.858Z,99059.44
2022-08-18T01:37:21.866Z,99058.75
2022-08-18T01:41:24.150Z,99055.22
2022-08-18T01:42:37.452Z,99061.41
2022-08-18T01:45:07.551Z,99052.66
2022-08-18T01:47:47.846Z,99049.16
2022-08-18T01:50:16.955Z,99054.78
2022-08-18T01:52:44.123Z,99064.06
2022-08-18T01:55:10.900Z,99063.09
2022-08-18T01:57:45.232Z,99072.81
2022-08-18T02:00:14.924Z,99067.59
2022-08-18T02:02:42.364Z,99068.47
2022-08-18T02:05:18.377Z,99073.09
2022-08-18T02:07:45.657Z,99075.94
2022-08-18T02:10:16.602Z,99069.13
2022-08-18T02:12:43.915Z,99070.84
2022-08-18T02:15:12.099Z,99072.63
2022-08-18T02:17:41.641Z,99074.47
2022-08-18T02:20:10.305Z,99074.63
2022-08-18T02:22:37.450Z,99076.47
2022-08-18T02:25:06.781Z,99072.06
2022-08-18T02:27:34.287Z,99074.88
2022-08-18T02:30:02.371Z,99074.03
2022-08-18T02:32:29.442Z,99077.81
2022-08-18T02:34:56.408Z,99072.72
2022-08-18T02:37:23.363Z,99074.84
2022-08-18T02:39:50.219Z,99071.44
2022-08-18T02:42:17.302Z,99076.94
2022-08-18T02:44:44.668Z,99074.25
2022-08-18T02:47:11.697Z,99079.75
2022-08-18T02:49:38.502Z,99079.19
2022-08-18T02:52:06.192Z,99077.47
2022-08-18T02:54:33.103Z,99090.88
2022-08-18T02:56:59.815Z,99085.50
2022-08-18T02:59:27.906Z,99085.50
2022-08-18T03:01:58.714Z,99087.47
2022-08-18T03:04:30.217Z,99085.63
2022-08-18T03:07:03.947Z,99088.31
2022-08-18T03:09:32.123Z,99092.72
2022-08-18T03:11:59.211Z,99084.53
2022-08-18T03:14:26.595Z,99077.91
2022-08-18T03:16:54.880Z,99087.28
2022-08-18T03:19:31.921Z,99080.38
2022-08-18T03:22:02.710Z,99086.66
2022-08-18T03:24:32.350Z,99086.69
2022-08-18T03:27:01.719Z,99084.75
2022-08-18T03:29:32.789Z,99087.19
2022-08-18T03:32:02.233Z,99084.41
2022-08-18T03:34:30.028Z,99085.88
2022-08-18T03:36:56.885Z,99083.22
2022-08-18T03:39:25.055Z,99087.47
2022-08-18T03:41:59.472Z,99079.13
2022-08-18T03:44:33.890Z,99085.63
2022-08-18T03:47:03.944Z,99089.25
2022-08-18T03:49:33.733Z,99089.13
2022-08-18T03:52:01.672Z,99085.19
2022-08-18T03:54:29.894Z,99090.41
2022-08-18T03:56:56.853Z,99087.38
2022-08-18T03:59:27.686Z,99088.34
2022-08-18T04:01:55.350Z,99095.50
2022-08-18T04:04:28.216Z,99088.34
2022-08-18T04:06:58.820Z,99096.28
2022-08-18T04:09:28.961Z,99088.31
2022-08-18T04:11:57.118Z,99092.75
2022-08-18T04:14:28.999Z,99097.69
2022-08-18T04:16:57.115Z,99091.63
2022-08-18T04:19:27.699Z,99102.91
2022-08-18T04:21:57.701Z,99093.56
2022-08-18T04:24:26.187Z,99087.13
2022-08-18T04:26:53.564Z,99083.72
2022-08-18T04:29:23.744Z,99090.31
2022-08-18T04:31:51.642Z,99093.34
2022-08-18T04:34:20.725Z,99102.69
2022-08-18T04:36:48.271Z,99100.66
2022-08-18T04:39:15.062Z,99096.22
2022-08-18T04:41:44.124Z,99097.91
2022-08-18T04:44:12.402Z,99098.69
2022-08-18T04:46:41.896Z,99097.94
2022-08-18T04:49:10.685Z,99099.31
2022-08-18T04:52:36.483Z,99101.09
2022-08-18T04:54:28.854Z,99092.97
2022-08-18T04:56:55.885Z,99094.88
2022-08-18T04:59:23.156Z,99101.28
2022-08-18T05:01:49.908Z,99100.69
2022-08-18T05:04:17.865Z,99104.91
2022-08-18T05:06:46.280Z,99097.25
2022-08-18T05:09:16.661Z,99096.13
2022-08-18T05:11:50.925Z,99086.97
2022-08-18T05:14:18.453Z,99091.59
2022-08-18T05:16:48.545Z,99085.97
2022-08-18T05:19:26.116Z,99090.81
2022-08-18T05:21:59.926Z,99096.31
2022-08-18T05:24:33.700Z,99099.13
2022-08-18T05:27:04.969Z,99097.13
2022-08-18T05:29:41.412Z,99102.41
2022-08-18T05:32:30.310Z,99108.41
2022-08-18T05:35:04.679Z,99100.25
2022-08-18T05:37:58.373Z,99103.66
2022-08-18T05:40:26.011Z,99108.13
2022-08-18T05:42:57.729Z,99108.03
2022-08-18T05:45:25.227Z,99109.06
2022-08-18T05:48:00.180Z,99108.88
2022-08-18T05:50:31.476Z,99102.25
2022-08-18T05:53:13.691Z,99100.50
2022-08-18T05:56:08.068Z,99107.78
2022-08-18T05:58:43.474Z,99108.59
2022-08-18T06:01:25.647Z,99114.00
2022-08-18T06:04:01.086Z,99117.75
2022-08-18T06:06:31.713Z,99118.41
2022-08-18T06:09:13.087Z,99114.84
2022-08-18T06:11:40.051Z,99115.59
2022-08-18T06:14:07.085Z,99119.00
2022-08-18T06:17:02.670Z,99116.66
2022-08-18T06:19:44.926Z,99125.03
2022-08-18T06:22:52.269Z,99114.44
2022-08-18T06:25:55.424Z,99116.78
2022-08-18T06:28:22.427Z,99120.22
2022-08-18T06:31:18.466Z,99115.69
2022-08-18T06:34:30.823Z,99114.41
2022-08-18T06:37:20.035Z,99119.88
2022-08-18T06:39:50.085Z,99116.75
2022-08-18T06:42:25.992Z,99120.94
2022-08-18T06:44:59.188Z,99119.88
2022-08-18T06:47:29.352Z,99114.84
2022-08-18T06:50:08.270Z,99115.66
2022-08-18T06:52:50.979Z,99112.41
2022-08-18T06:55:30.993Z,99109.97
2022-08-18T06:58:01.263Z,99111.41
2022-08-18T07:00:34.688Z,99107.38
2022-08-18T07:03:20.808Z,99123.44
2022-08-18T07:06:07.922Z,99111.25
2022-08-18T07:08:41.394Z,99106.44
2022-08-18T07:11:13.778Z,99108.34
2022-08-18T07:13:44.460Z,99108.72
2022-08-18T07:16:57.030Z,99107.53
2022-08-18T07:19:30.024Z,99110.31
2022-08-18T07:22:05.440Z,99111.00
2022-08-18T07:24:38.742Z,99102.34
2022-08-18T07:27:16.000Z,99104.84
2022-08-18T07:30:09.133Z,99113.34
2022-08-18T07:33:09.549Z,99110.94
2022-08-18T07:35:59.490Z,99109.38
2022-08-18T07:38:43.273Z,99114.84
2022-08-18T07:41:52.600Z,99112.25
2022-08-18T07:44:23.651Z,99118.31
2022-08-18T07:47:04.397Z,99106.53
2022-08-18T07:49:37.020Z,99112.00
2022-08-18T07:52:46.877Z,99098.03
2022-08-18T07:55:37.918Z,99092.06
2022-08-18T07:58:32.737Z,99098.47
2022-08-18T08:01:00.305Z,99090.25
2022-08-18T08:04:01.456Z,99084.53
2022-08-18T08:06:37.234Z,99094.00
2022-08-18T08:09:29.924Z,99090.69
2022-08-18T08:12:01.853Z,99102.78
2022-08-18T08:14:49.843Z,99103.84
2022-08-18T08:17:25.444Z,99101.00
2022-08-18T08:20:10.648Z,99104.06
2022-08-18T08:23:05.213Z,99099.53
2022-08-18T08:25:54.796Z,99116.22
2022-08-18T08:28:41.779Z,99107.94
2022-08-18T08:31:37.955Z,99112.75
2022-08-18T08:34:25.696Z,99123.50
2022-08-18T08:37:02.707Z,99104.72
2022-08-18T08:39:37.694Z,99107.69
2022-08-18T08:42:32.073Z,99113.66
2022-08-18T08:45:07.288Z,99116.25
2022-08-18T08:47:45.377Z,99115.53
2022-08-18T08:50:22.276Z,99115.91
2022-08-18T08:53:06.233Z,99109.94
2022-08-18T08:55:37.875Z,99114.41
2022-08-18T08:58:24.710Z,99109.03
2022-08-18T09:00:52.693Z,99110.16
2022-08-18T09:04:01.929Z,99093.63
2022-08-18T09:06:48.429Z,99104.66
2022-08-18T09:09:21.277Z,99098.69
2022-08-18T09:12:03.386Z,99116.44
2022-08-18T09:15:00.447Z,99110.47
2022-08-18T09:17:50.755Z,99119.06
2022-08-18T09:20:43.527Z,99109.75
2022-08-18T09:23:21.507Z,99108.06
2022-08-18T09:25:56.792Z,99110.75
2022-08-18T09:28:56.430Z,99123.94
2022-08-18T09:31:24.843Z,99123.84
2022-08-18T09:34:10.915Z,99125.47
2022-08-18T09:36:58.903Z,99119.59
2022-08-18T09:39:57.878Z,99122.94
2022-08-18T09:42:30.594Z,99113.69
2022-08-18T09:45:02.188Z,99114.06
2022-08-18T09:47:30.467Z,99110.31
2022-08-18T09:50:26.906Z,99110.69
2022-08-18T09:52:58.993Z,99107.63
2022-08-18T09:55:29.225Z,99103.16
2022-08-18T09:58:26.228Z,99091.66
2022-08-18T10:01:39.880Z,99098.53
2022-08-18T10:04:21.861Z,99099.84
2022-08-18T10:07:16.006Z,99109.25
2022-08-18T10:13:38.763Z,99106.91
2022-08-18T10:17:15.934Z,99100.53
2022-08-18T10:19:56.226Z,99105.56
2022-08-18T10:22:43.701Z,99108.38
2022-08-18T10:25:22.961Z,99106.25
2022-08-18T10:27:56.863Z,99107.97
2022-08-18T10:30:34.469Z,99114.28
2022-08-18T10:33:17.858Z,99114.47
2022-08-18T10:36:03.076Z,99116.22
2022-08-18T10:38:47.848Z,99124.97
2022-08-18T10:41:24.518Z,99124.97
2022-08-18T10:43:55.921Z,99117.28
2022-08-18T10:46:34.992Z,99127.78
2022-08-18T10:49:21.597Z,99115.72
2022-08-18T10:52:09.355Z,99114.63
2022-08-18T10:55:10.535Z,99116.34
2022-08-18T10:58:15.376Z,99109.28
2022-08-18T11:01:20.262Z,99099.25
2022-08-18T11:03:56.137Z,99097.84
2022-08-18T11:06:27.124Z,99110.38
2022-08-18T11:09:00.368Z,99112.72
2022-08-18T11:11:43.025Z,99105.47
2022-08-18T11:14:23.761Z,99118.47
2022-08-18T11:16:59.737Z,99115.00
2022-08-18T11:19:27.232Z,99113.50
2022-08-18T11:21:54.196Z,99106.25
2022-08-18T11:24:27.590Z,99105.59
2022-08-18T11:27:03.425Z,99097.28
2022-08-18T11:29:34.645Z,99097.75
2022-08-18T11:32:26.280Z,99097.72
2022-08-18T11:35:10.814Z,99097.50
2022-08-18T11:37:52.079Z,99097.81
2022-08-18T11:43:16.951Z,99091.34
2022-08-18T11:45:52.815Z,99076.13
2022-08-18T11:48:36.023Z,99094.63
2022-08-18T11:51:22.725Z,99092.53
2022-08-18T11:54:03.153Z,99083.94
2022-08-18T11:56:36.031Z,99078.00
2022-08-18T11:59:08.664Z,99072.50
2022-08-18T12:01:41.912Z,99075.91
2022-08-18T12:04:14.514Z,99077.97
2022-08-18T12:06:59.505Z,99074.50
2022-08-18T12:12:30.934Z,99067.09
2022-08-18T12:15:24.676Z,99076.03
2022-08-18T12:17:53.660Z,99074.44
2022-08-18T12:20:22.011Z,99086.75
2022-08-18T12:22:50.271Z,99082.03
2022-08-18T12:28:11.191Z,99087.66
2022-08-18T12:30:38.105Z,99091.97
2022-08-18T12:33:12.099Z,99098.81
2022-08-18T12:38:26.716Z,99085.03
2022-08-18T12:40:53.554Z,99090.97
2022-08-18T12:43:20.513Z,99087.16
2022-08-18T12:45:47.792Z,99078.88
2022-08-18T12:48:15.111Z,99080.91
2022-08-18T12:50:54.181Z,99087.91
2022-08-18T12:53:29.183Z,99084.38
2022-08-18T12:56:19.919Z,99080.97
2022-08-18T12:58:46.937Z,99083.41
2022-08-18T13:01:13.890Z,99072.31
2022-08-18T13:04:11.029Z,99076.81
2022-08-18T13:06:37.413Z,99071.00
2022-08-18T13:09:16.671Z,99078.34
2022-08-18T13:11:55.082Z,99069.94
2022-08-18T13:14:22.560Z,99069.06
2022-08-18T13:16:53.858Z,99067.91
2022-08-18T13:19:21.769Z,99064.66
2022-08-18T13:21:49.539Z,99078.63
2022-08-18T13:24:16.696Z,99056.88
2022-08-18T13:26:50.221Z,99073.09
2022-08-18T13:29:19.427Z,99065.59
2022-08-18T13:31:55.936Z,99071.19
2022-08-18T13:34:29.761Z,99077.06
2022-08-18T13:36:58.056Z,99081.75
2022-08-18T13:39:34.080Z,99081.50
2022-08-18T13:42:26.413Z,99076.59
2022-08-18T13:44:53.230Z,99083.91
2022-08-18T13:47:22.340Z,99079.63
2022-08-18T13:49:57.858Z,99087.50
2022-08-18T13:52:34.182Z,99083.03
2022-08-18T13:55:08.278Z,99086.38
2022-08-18T13:57:36.868Z,99085.56
2022-08-18T14:00:12.227Z,99086.28
2022-08-18T14:02:53.619Z,99086.25
2022-08-18T14:05:21.489Z,99086.38
2022-08-18T14:08:05.238Z,99095.63
2022-08-18T14:10:32.951Z,99096.38
2022-08-18T14:13:20.875Z,99090.38
2022-08-18T14:15:53.537Z,99092.81
2022-08-18T14:18:21.533Z,99099.94
2022-08-18T14:21:15.694Z,99096.72
2022-08-18T14:24:01.231Z,99105.47
2022-08-18T14:26:47.085Z,99114.13
2022-08-18T14:29:45.716Z,99116.34
2022-08-18T14:32:07.228Z,99114.00
2022-08-18T14:34:34.657Z,99111.28
2022-08-18T14:37:03.252Z,99121.84
2022-08-18T14:39:30.369Z,99124.59
2022-08-18T14:41:58.592Z,99124.66
2022-08-18T14:44:30.261Z,99135.19
2022-08-18T14:46:59.604Z,99130.94
2022-08-18T14:49:29.404Z,99124.22
2022-08-18T14:52:01.119Z,99129.84
2022-08-18T14:54:30.089Z,99129.38
2022-08-18T14:56:59.940Z,99128.75
2022-08-18T14:59:28.533Z,99134.47
2022-08-18T15:01:55.962Z,99120.00
2022-08-18T15:04:23.050Z,99124.06
2022-08-18T15:06:56.307Z,99138.50
2022-08-18T15:09:27.420Z,99132.63
2022-08-18T15:11:56.252Z,99138.13
2022-08-18T15:14:33.135Z,99138.16
2022-08-18T15:17:02.999Z,99141.53
2022-08-18T15:20:00.496Z,99141.28
2022-08-18T15:22:44.640Z,99136.81
2022-08-18T15:25:30.047Z,99136.41
2022-08-18T15:27:58.157Z,99143.69
2022-08-18T15:30:25.649Z,99151.00
2022-08-18T15:32:54.546Z,99146.56
2022-08-18T15:35:21.469Z,99151.97
2022-08-18T15:37:54.104Z,99157.81
2022-08-18T15:40:35.540Z,99160.13
2022-08-18T15:43:10.105Z,99157.91
2022-08-18T15:45:43.323Z,99162.53
2022-08-18T15:48:20.276Z,99155.34
2022-08-18T15:50:50.992Z,99152.75
2022-08-18T15:53:21.444Z,99147.91
2022-08-18T15:55:49.984Z,99153.13
2022-08-18T15:58:18.220Z,99151.47
2022-08-18T16:00:50.639Z,99152.34
2022-08-18T16:03:20.613Z,99158.00
2022-08-18T16:05:55.205Z,99148.50
2022-08-18T16:08:25.495Z,99149.72
2022-08-18T16:10:53.624Z,99150.50
2022-08-18T16:13:21.321Z,99147.88
2022-08-18T16:15:49.957Z,99156.00
2022-08-18T16:18:18.778Z,99160.75
2022-08-18T16:20:45.683Z,99159.22
2022-08-18T16:23:13.222Z,99160.44
2022-08-18T16:25:41.780Z,99158.47
2022-08-18T16:28:09.542Z,99162.34
2022-08-18T16:30:36.598Z,99154.69
2022-08-18T16:33:06.559Z,99161.84
2022-08-18T16:35:34.894Z,99161.78
2022-08-18T16:38:08.676Z,99158.81
2022-08-18T16:40:36.893Z,99175.19
2022-08-18T16:43:05.967Z,99167.16
2022-08-18T16:45:35.936Z,99173.06
2022-08-18T16:48:03.007Z,99175.44
2022-08-18T16:50:30.172Z,99182.53
2022-08-18T16:52:57.696Z,99190.13
2022-08-18T16:55:24.697Z,99192.78
2022-08-18T16:58:14.877Z,99193.03
2022-08-18T17:01:01.889Z,99202.47
2022-08-18T17:03:47.758Z,99200.19
2022-08-18T17:06:18.039Z,99196.97
2022-08-18T17:08:46.292Z,99198.38
2022-08-18T17:11:17.756Z,99194.88
2022-08-18T17:13:46.242Z,99189.38
2022-08-18T17:16:13.739Z,99191.00
2022-08-18T17:18:41.800Z,99192.91
2022-08-18T17:21:11.799Z,99184.97
2022-08-18T17:23:39.592Z,99186.41
2022-08-18T17:26:17.503Z,99202.00
2022-08-18T17:28:52.653Z,99213.22
2022-08-18T17:31:22.680Z,99205.28
2022-08-18T17:33:50.211Z,99208.84
2022-08-18T17:36:30.523Z,99212.59
2022-08-18T17:39:01.403Z,99209.41
2022-08-18T17:41:28.618Z,99213.13
2022-08-18T17:43:57.491Z,99219.56
2022-08-18T17:46:32.299Z,99212.63
2022-08-18T17:49:06.343Z,99210.09
2022-08-18T17:51:44.414Z,99210.28
2022-08-18T17:54:33.654Z,99209.06
2022-08-18T17:57:13.512Z,99212.63
2022-08-18T18:00:02.535Z,99219.88
2022-08-18T18:02:41.016Z,99217.31
2022-08-18T18:05:11.879Z,99218.81
2022-08-18T18:07:52.922Z,99221.00
2022-08-18T18:11:04.348Z,99230.63
2022-08-18T18:13:34.984Z,99241.94
2022-08-18T18:16:21.533Z,99238.19
2022-08-18T18:18:59.988Z,99236.97
2022-08-18T18:21:53.451Z,99232.53
2022-08-18T18:24:24.200Z,99224.91
2022-08-18T18:26:52.145Z,99229.66
2022-08-18T18:29:35.660Z,99231.13
2022-08-18T18:32:23.923Z,99234.81
2022-08-18T18:35:07.430Z,99232.78
2022-08-18T18:37:44.132Z,99232.25
2022-08-18T18:40:29.388Z,99231.84
2022-08-18T18:43:16.649Z,99240.59
2022-08-18T18:46:05.089Z,99231.63
2022-08-18T18:48:59.233Z,99233.41
2022-08-18T18:51:36.032Z,99233.50
2022-08-18T18:54:09.102Z,99229.25
2022-08-18T18:56:45.672Z,99231.69
2022-08-18T18:59:35.269Z,99226.25
2022-08-18T19:02:21.162Z,99225.66
2022-08-18T19:05:09.821Z,99227.25
2022-08-18T19:07:55.314Z,99229.56
2022-08-18T19:10:31.256Z,99228.34
2022-08-18T19:13:05.688Z,99233.38
2022-08-18T19:15:38.118Z,99231.28
2022-08-18T19:18:28.686Z,99234.75
2022-08-18T19:22:01.969Z,99232.81
2022-08-18T19:23:56.867Z,99238.13
2022-08-18T19:26:28.839Z,99231.63
2022-08-18T19:29:13.750Z,99237.50
2022-08-18T19:32:07.348Z,99238.94
2022-08-18T19:34:42.463Z,99245.47
2022-08-18T19:37:31.547Z,99251.00
2022-08-18T19:40:39.385Z,99258.09
2022-08-18T19:43:17.550Z,99254.03
2022-08-18T19:45:47.181Z,99249.78
2022-08-18T19:48:34.831Z,99260.84
2022-08-18T19:51:10.271Z,99258.31
2022-08-18T19:53:44.221Z,99254.22
2022-08-18T19:56:48.945Z,99257.06
2022-08-18T19:59:44.079Z,99250.25
2022-08-18T20:02:17.032Z,99252.81
2022-08-18T20:04:57.432Z,99249.97
2022-08-18T20:07:49.876Z,99252.50
2022-08-18T20:10:34.491Z,99249.41
2022-08-18T20:13:11.416Z,99251.78
2022-08-18T20:15:57.683Z,99258.31
2022-08-18T20:18:34.471Z,99253.34
2022-08-18T20:21:26.340Z,99252.66
2022-08-18T20:23:56.615Z,99249.56
2022-08-18T20:26:37.754Z,99253.53
2022-08-18T20:29:13.154Z,99258.38
2022-08-18T20:31:49.248Z,99255.97
2022-08-18T20:34:25.527Z,99263.53
2022-08-18T20:36:53.528Z,99262.97
2022-08-18T20:39:38.981Z,99254.91
2022-08-18T20:42:27.443Z,99259.56
2022-08-18T20:44:58.926Z,99263.72
2022-08-18T20:47:31.474Z,99267.78
2022-08-18T20:50:13.429Z,99260.56
2022-08-18T20:53:04.101Z,99260.44
2022-08-18T20:56:12.952Z,99263.13
2022-08-18T20:59:08.914Z,99261.72
2022-08-18T21:01:36.967Z,99261.84
2022-08-18T21:04:06.123Z,99264.28
2022-08-18T21:06:38.599Z,99266.88
2022-08-18T21:09:05.635Z,99261.38
2022-08-18T21:11:43.755Z,99256.56
2022-08-18T21:14:12.973Z,99261.69
2022-08-18T21:16:45.199Z,99269.63
2022-08-18T21:19:27.924Z,99253.47
2022-08-18T21:22:00.516Z,99261.25
2022-08-18T21:24:33.221Z,99263.81
2022-08-18T21:27:05.740Z,99265.81
2022-08-18T21:29:46.987Z,99271.75
2022-08-18T21:32:20.274Z,99267.22
2022-08-18T21:34:47.869Z,99266.81
2022-08-18T21:37:18.193Z,99268.78
2022-08-18T21:39:48.099Z,99271.03
2022-08-18T21:42:21.327Z,99274.03
2022-08-18T21:44:49.319Z,99274.44
2022-08-18T21:47:29.746Z,99285.47
2022-08-18T21:50:23.223Z,99280.38
2022-08-18T21:52:54.859Z,99278.13
2022-08-18T21:55:45.170Z,99277.69
2022-08-18T21:58:16.738Z,99274.59
2022-08-18T22:00:47.961Z,99279.81
2022-08-18T22:03:25.230Z,99283.78
2022-08-18T22:06:01.617Z,99284.66
2022-08-18T22:08:33.289Z,99277.97
2022-08-18T22:11:51.968Z,99275.00
2022-08-18T22:14:54.292Z,99272.88
2022-08-18T22:17:56.613Z,99270.91
2022-08-18T22:20:35.231Z,99273.16
2022-08-18T22:23:32.789Z,99274.72
2022-08-18T22:26:09.942Z,99272.03
2022-08-18T22:28:58.874Z,99270.34
2022-08-18T22:31:47.917Z,99267.50
2022-08-18T22:34:27.081Z,99264.13
2022-08-18T22:37:00.045Z,99262.72
2022-08-18T22:39:34.164Z,99263.69
2022-08-18T22:42:01.505Z,99270.47
2022-08-18T22:44:28.780Z,99268.78
2022-08-18T22:46:55.884Z,99272.59
2022-08-18T22:49:24.243Z,99265.97
2022-08-18T22:51:54.289Z,99269.06
2022-08-18T22:54:23.192Z,99267.09
2022-08-18T22:56:53.790Z,99267.66
2022-08-18T22:59:25.598Z,99263.13
2022-08-18T23:01:54.709Z,99258.75
2022-08-18T23:04:23.647Z,99257.31
2022-08-18T23:06:53.807Z,99258.47
2022-08-18T23:09:27.078Z,99256.34
2022-08-18T23:11:56.357Z,99260.69
2022-08-18T23:14:24.194Z,99256.19
2022-08-18T23:16:51.350Z,99249.75
2022-08-18T23:19:20.392Z,99254.81
2022-08-18T23:21:48.949Z,99255.50
2022-08-18T23:24:16.761Z,99254.81
2022-08-18T23:26:43.655Z,99263.97
2022-08-18T23:29:11.875Z,99265.97
2022-08-18T23:31:41.111Z,99261.88
2022-08-18T23:34:08.684Z,99262.28
2022-08-18T23:36:38.763Z,99262.94
2022-08-18T23:39:07.170Z,99261.50
2022-08-18T23:41:35.663Z,99254.16
2022-08-18T23:44:02.708Z,99260.91
2022-08-18T23:46:30.925Z,99273.88
2022-08-18T23:48:59.078Z,99262.97
2022-08-18T23:51:37.000Z,99270.66
2022-08-18T23:54:07.797Z,99270.22
2022-08-18T23:56:35.891Z,99272.34
2022-08-18T23:59:05.197Z,99281.59
